createdAt,value
2022-09-28T00:01:08.422Z,95558.31
2022-09-28T00:03:36.820Z,95560.78
2022-09-28T00:06:06.273Z,95549.44
2022-09-28T00:08:35.220Z,95542.19
2022-09-28T00:11:04.143Z,95555.94
2022-09-28T00:13:33.130Z,95548.44
2022-09-28T00:16:04.333Z,95539.22
2022-09-28T00:18:32.487Z,95534.00
2022-09-28T00:21:14.870Z,95533.81
2022-09-28T00:23:57.686Z,95525.13
2022-09-28T00:26:26.212Z,95518.00
2022-09-28T00:28:54.595Z,95514.38
2022-09-28T00:31:25.337Z,95500.06
2022-09-28T00:33:55.462Z,95494.19
2022-09-28T00:36:23.741Z,95491.97
2022-09-28T00:38:52.631Z,95498.25
2022-09-28T00:41:20.760Z,95504.72
2022-09-28T00:43:48.870Z,95502.69
2022-09-28T00:46:20.271Z,95490.81
2022-09-28T00:48:54.263Z,95483.09
2022-09-28T00:51:22.801Z,95481.31
2022-09-28T00:53:52.306Z,95482.06
2022-09-28T00:56:22.346Z,95493.59
2022-09-28T00:58:53.612Z,95483.88
2022-09-28T01:01:22.083Z,95474.44
2022-09-28T01:03:51.546Z,95474.88
2022-09-28T01:06:21.756Z,95470.81
2022-09-28T01:08:52.166Z,95466.00
2022-09-28T01:11:20.606Z,95464.34
2022-09-28T01:13:50.308Z,95462.94
2022-09-28T01:16:24.850Z,95462.38
2022-09-28T01:19:01.136Z,95456.34
2022-09-28T01:21:29.260Z,95452.50
2022-09-28T01:24:12.760Z,95445.22
2022-09-28T01:27:08.777Z,95445.31
2022-09-28T01:29:46.540Z,95437.78
2022-09-28T01:32:25.106Z,95428.53
2022-09-28T01:34:58.869Z,95426.31
2022-09-28T01:37:43.930Z,95421.91
2022-09-28T01:40:14.049Z,95412.59
2022-09-28T01:42:46.316Z,95407.34
2022-09-28T01:45:18.447Z,95399.44
2022-09-28T01:47:47.795Z,95410.16
2022-09-28T01:50:17.835Z,95403.84
2022-09-28T01:52:50.569Z,95403.28
2022-09-28T01:55:22.459Z,95404.25
2022-09-28T01:57:54.557Z,95397.38
2022-09-28T02:00:24.229Z,95407.75
2022-09-28T02:02:55.837Z,95398.66
2022-09-28T02:05:27.635Z,95398.88
2022-09-28T02:07:59.775Z,95394.63
2022-09-28T02:10:31.738Z,95385.91
2022-09-28T02:13:03.228Z,95385.34
2022-09-28T02:15:36.970Z,95373.59
2022-09-28T02:18:05.376Z,95369.97
2022-09-28T02:20:34.126Z,95358.22
2022-09-28T02:23:03.429Z,95348.19
2022-09-28T02:25:36.467Z,95334.78
2022-09-28T02:28:07.542Z,95329.94
2022-09-28T02:30:38.277Z,95330.38
2022-09-28T02:33:10.767Z,95316.59
2022-09-28T02:35:39.697Z,95319.22
2022-09-28T02:38:07.810Z,95319.03
2022-09-28T02:40:38.972Z,95301.22
2022-09-28T02:43:16.127Z,95310.94
2022-09-28T02:45:52.653Z,95308.53
2022-09-28T02:48:44.032Z,95303.66
2022-09-28T02:51:20.537Z,95298.22
2022-09-28T02:54:18.824Z,95291.75
2022-09-28T02:57:00.107Z,95287.31
2022-09-28T02:59:38.518Z,95286.13
2022-09-28T03:02:12.848Z,95282.06
2022-09-28T03:04:45.988Z,95280.47
2022-09-28T03:07:19.058Z,95277.81
2022-09-28T03:09:54.367Z,95273.97
2022-09-28T03:12:24.843Z,95271.16
2022-09-28T03:15:10.555Z,95272.38
2022-09-28T03:17:38.930Z,95264.28
2022-09-28T03:20:08.299Z,95263.06
2022-09-28T03:22:36.357Z,95266.09
2022-09-28T03:25:05.087Z,95257.41
2022-09-28T03:27:33.375Z,95249.94
2022-09-28T03:30:01.869Z,95245.06
2022-09-28T03:32:31.337Z,95252.16
2022-09-28T03:34:59.513Z,95219.41
2022-09-28T03:37:27.919Z,95227.91
2022-09-28T03:39:56.068Z,95222.03
2022-09-28T03:42:24.196Z,95218.19
2022-09-28T03:44:52.331Z,95223.47
2022-09-28T03:47:21.507Z,95217.38
2022-09-28T03:49:51.189Z,95202.44
2022-09-28T03:52:19.656Z,95195.97
2022-09-28T03:54:49.410Z,95193.34
2022-09-28T03:57:17.617Z,95188.88
2022-09-28T03:59:45.774Z,95186.66
2022-09-28T04:02:13.892Z,95179.19
2022-09-28T04:04:41.998Z,95173.53
2022-09-28T04:07:11.487Z,95173.91
2022-09-28T04:09:39.635Z,95165.00
2022-09-28T04:12:07.988Z,95152.88
2022-09-28T04:14:36.147Z,95134.31
2022-09-28T04:17:05.156Z,95129.44
2022-09-28T04:19:33.278Z,95123.97
2022-09-28T04:22:01.839Z,95114.09
2022-09-28T04:24:31.344Z,95118.72
2022-09-28T04:27:19.467Z,95122.78
2022-09-28T04:29:46.617Z,95118.31
2022-09-28T04:32:14.708Z,95113.47
2022-09-28T04:34:44.307Z,95112.84
2022-09-28T04:37:12.769Z,95109.22
2022-09-28T04:39:46.165Z,95114.06
2022-09-28T04:42:16.501Z,95108.59
2022-09-28T04:44:44.527Z,95099.69
2022-09-28T04:47:12.607Z,95096.66
2022-09-28T04:49:40.826Z,95104.75
2022-09-28T04:52:09.494Z,95099.28
2022-09-28T04:54:37.594Z,95092.22
2022-09-28T04:57:07.168Z,95071.56
2022-09-28T04:59:36.415Z,95081.06
2022-09-28T05:02:04.646Z,95079.25
2022-09-28T05:04:32.897Z,95083.69
2022-09-28T05:07:01.047Z,95078.84
2022-09-28T05:09:29.106Z,95074.56
2022-09-28T05:11:57.197Z,95064.25
2022-09-28T05:14:26.867Z,95072.75
2022-09-28T05:16:55.069Z,95072.53
2022-09-28T05:19:23.217Z,95067.84
2022-09-28T05:21:51.357Z,95065.03
2022-09-28T05:24:19.487Z,95056.28
2022-09-28T05:26:47.587Z,95063.75
2022-09-28T05:29:15.837Z,95057.09
2022-09-28T05:31:45.320Z,95054.66
2022-09-28T05:34:13.556Z,95053.56
2022-09-28T05:36:42.917Z,95062.28
2022-09-28T05:39:11.126Z,95048.09
2022-09-28T05:41:39.254Z,95047.03
2022-09-28T05:44:07.419Z,95044.75
2022-09-28T05:46:35.557Z,95041.16
2022-09-28T05:49:05.185Z,95040.31
2022-09-28T05:51:33.229Z,95042.69
2022-09-28T05:54:05.945Z,95040.66
2022-09-28T05:56:34.387Z,95035.06
2022-09-28T05:59:05.427Z,95030.00
2022-09-28T06:01:33.765Z,95036.47
2022-09-28T06:04:02.395Z,95042.97
2022-09-28T06:06:31.946Z,95043.97
2022-09-28T06:09:00.008Z,95042.53
2022-09-28T06:11:28.283Z,95044.66
2022-09-28T06:13:56.635Z,95049.88
2022-09-28T06:16:25.798Z,95030.97
2022-09-28T06:18:53.957Z,95046.94
2022-09-28T06:21:22.339Z,95038.44
2022-09-28T06:23:52.145Z,95039.03
2022-09-28T06:26:20.447Z,95036.16
2022-09-28T06:28:48.580Z,95039.34
2022-09-28T06:31:16.765Z,95028.06
2022-09-28T06:33:44.948Z,95039.31
2022-09-28T06:36:13.928Z,95037.34
2022-09-28T06:38:42.066Z,95043.38
2022-09-28T06:41:12.517Z,95042.69
2022-09-28T06:43:40.954Z,95038.19
2022-09-28T06:46:10.655Z,95040.44
2022-09-28T06:48:38.807Z,95041.19
2022-09-28T06:51:07.267Z,95044.09
2022-09-28T06:53:35.974Z,95040.81
2022-09-28T06:56:05.069Z,95050.50
2022-09-28T06:58:34.638Z,95045.59
2022-09-28T07:01:02.818Z,95055.31
2022-09-28T07:03:31.057Z,95050.63
2022-09-28T07:05:59.215Z,95049.84
2022-09-28T07:08:29.095Z,95060.25
2022-09-28T07:10:57.510Z,95065.38
2022-09-28T07:16:19.609Z,95066.53
2022-09-28T07:18:49.801Z,95051.44
2022-09-28T07:21:28.000Z,95049.66
2022-09-28T07:23:57.566Z,95067.34
2022-09-28T07:26:25.866Z,95062.66
2022-09-28T07:28:56.077Z,95076.63
2022-09-28T07:31:26.557Z,95079.63
2022-09-28T07:33:55.542Z,95081.84
2022-09-28T07:36:23.716Z,95093.69
2022-09-28T07:38:51.827Z,95086.03
2022-09-28T07:41:27.445Z,95086.72
2022-09-28T07:43:55.628Z,95100.09
2022-09-28T07:46:25.262Z,95090.88
2022-09-28T07:48:53.894Z,95104.97
2022-09-28T07:51:22.327Z,95108.72
2022-09-28T07:53:50.490Z,95116.59
2022-09-28T07:56:20.535Z,95115.75
2022-09-28T07:58:49.030Z,95115.72
2022-09-28T08:01:19.232Z,95125.00
2022-09-28T08:03:48.837Z,95121.44
2022-09-28T08:06:18.494Z,95121.34
2022-09-28T08:08:46.904Z,95126.06
2022-09-28T08:11:16.847Z,95113.81
2022-09-28T08:13:46.629Z,95135.69
2022-09-28T08:16:14.966Z,95129.16
2022-09-28T08:18:43.152Z,95121.91
2022-09-28T08:21:30.019Z,95118.91
2022-09-28T08:23:58.132Z,95116.63
2022-09-28T08:26:26.422Z,95116.63
2022-09-28T08:28:54.468Z,95129.63
2022-09-28T08:31:22.782Z,95134.00
2022-09-28T08:33:54.643Z,95144.78
2022-09-28T08:36:24.211Z,95154.22
2022-09-28T08:38:52.414Z,95151.59
2022-09-28T08:41:26.039Z,95143.88
2022-09-28T08:44:03.955Z,95142.50
2022-09-28T08:46:35.704Z,95140.66
2022-09-28T08:49:25.049Z,95139.41
2022-09-28T08:51:59.721Z,95136.50
2022-09-28T08:54:35.875Z,95139.72
2022-09-28T08:57:07.066Z,95151.94
2022-09-28T08:59:47.767Z,95162.72
2022-09-28T09:02:18.772Z,95161.09
2022-09-28T09:04:46.996Z,95163.25
2022-09-28T09:07:51.257Z,95168.06
2022-09-28T09:10:47.149Z,95157.41
2022-09-28T09:13:30.984Z,95153.41
2022-09-28T09:16:03.175Z,95168.94
2022-09-28T09:18:42.835Z,95172.28
2022-09-28T09:21:15.857Z,95171.78
2022-09-28T09:23:55.519Z,95179.31
2022-09-28T09:26:30.959Z,95179.69
2022-09-28T09:29:15.017Z,95183.66
2022-09-28T09:31:59.806Z,95190.66
2022-09-28T09:35:05.722Z,95185.84
2022-09-28T09:37:57.762Z,95182.75
2022-09-28T09:40:37.817Z,95200.84
2022-09-28T09:43:16.276Z,95195.19
2022-09-28T09:45:55.115Z,95190.81
2022-09-28T09:48:27.155Z,95184.63
2022-09-28T09:50:58.724Z,95190.66
2022-09-28T09:53:28.987Z,95187.00
2022-09-28T09:56:03.924Z,95184.28
2022-09-28T09:58:35.816Z,95187.00
2022-09-28T10:01:09.821Z,95175.94
2022-09-28T10:03:42.037Z,95178.44
2022-09-28T10:06:13.326Z,95182.53
2022-09-28T10:08:44.538Z,95183.53
2022-09-28T10:11:17.080Z,95179.19
2022-09-28T10:13:45.458Z,95177.19
2022-09-28T10:16:13.885Z,95183.00
2022-09-28T10:18:42.427Z,95183.53
2022-09-28T10:21:14.559Z,95179.34
2022-09-28T10:23:43.229Z,95174.66
2022-09-28T10:26:16.198Z,95185.53
2022-09-28T10:28:50.047Z,95182.31
2022-09-28T10:31:38.563Z,95189.41
2022-09-28T10:34:08.384Z,95191.19
2022-09-28T10:36:47.687Z,95184.28
2022-09-28T10:39:32.014Z,95191.69
2022-09-28T10:42:04.551Z,95198.31
2022-09-28T10:44:35.068Z,95192.72
2022-09-28T10:47:05.776Z,95192.69
2022-09-28T10:49:45.823Z,95198.34
2022-09-28T10:52:33.349Z,95202.13
2022-09-28T10:55:02.018Z,95205.00
2022-09-28T10:57:36.918Z,95203.69
2022-09-28T11:00:07.168Z,95206.50
2022-09-28T11:02:36.926Z,95205.09
2022-09-28T11:05:07.189Z,95205.84
2022-09-28T11:07:46.311Z,95206.03
2022-09-28T11:10:22.308Z,95217.50
2022-09-28T11:12:52.600Z,95207.41
2022-09-28T11:15:22.068Z,95226.84
2022-09-28T11:17:50.449Z,95212.09
2022-09-28T11:20:31.824Z,95217.16
2022-09-28T11:23:00.888Z,95219.78
2022-09-28T11:25:30.415Z,95229.00
2022-09-28T11:28:01.854Z,95223.44
2022-09-28T11:30:33.068Z,95220.88
2022-09-28T11:33:05.558Z,95229.88
2022-09-28T11:35:43.854Z,95233.97
2022-09-28T11:38:22.682Z,95230.66
2022-09-28T11:40:58.625Z,95216.03
2022-09-28T11:43:49.774Z,95235.66
2022-09-28T11:46:27.259Z,95228.06
2022-09-28T11:48:57.994Z,95236.03
2022-09-28T11:51:28.708Z,95236.09
2022-09-28T11:54:00.343Z,95237.75
2022-09-28T11:56:35.182Z,95233.63
2022-09-28T11:59:10.125Z,95231.44
2022-09-28T12:01:42.429Z,95239.75
2022-09-28T12:04:14.162Z,95228.56
2022-09-28T12:06:46.807Z,95222.00
2022-09-28T12:09:19.993Z,95232.09
2022-09-28T12:11:50.995Z,95222.19
2022-09-28T12:14:24.995Z,95229.94
2022-09-28T12:17:07.457Z,95220.94
2022-09-28T12:19:40.300Z,95225.72
2022-09-28T12:22:15.235Z,95225.31
2022-09-28T12:24:45.866Z,95227.88
2022-09-28T12:27:16.956Z,95227.38
2022-09-28T12:29:48.801Z,95224.19
2022-09-28T12:32:25.936Z,95235.59
2022-09-28T12:34:54.178Z,95236.84
2022-09-28T12:37:33.366Z,95235.38
2022-09-28T12:40:26.521Z,95240.56
2022-09-28T12:43:05.759Z,95235.50
2022-09-28T12:46:06.759Z,95240.22
2022-09-28T12:49:40.978Z,95251.88
2022-09-28T12:51:50.678Z,95242.94
2022-09-28T12:54:44.408Z,95246.88
2022-09-28T12:57:31.609Z,95249.41
2022-09-28T13:00:05.687Z,95259.31
2022-09-28T13:03:02.517Z,95266.88
2022-09-28T13:05:57.329Z,95254.63
2022-09-28T13:08:32.406Z,95270.75
2022-09-28T13:11:08.116Z,95262.53
2022-09-28T13:13:46.304Z,95268.13
2022-09-28T13:16:18.212Z,95267.38
2022-09-28T13:18:52.287Z,95269.19
2022-09-28T13:21:27.060Z,95269.84
2022-09-28T13:24:08.751Z,95263.13
2022-09-28T13:26:47.337Z,95274.28
2022-09-28T13:29:18.024Z,95271.41
2022-09-28T13:31:48.265Z,95273.94
2022-09-28T13:34:22.630Z,95271.06
2022-09-28T13:37:21.830Z,95271.44
2022-09-28T13:39:52.993Z,95278.41
2022-09-28T13:42:59.247Z,95280.13
2022-09-28T13:45:52.524Z,95284.63
2022-09-28T13:48:23.508Z,95291.53
2022-09-28T13:51:06.265Z,95288.56
2022-09-28T13:53:46.374Z,95287.28
2022-09-28T13:56:25.911Z,95284.50
2022-09-28T13:58:56.838Z,95292.41
2022-09-28T14:01:27.983Z,95286.50
2022-09-28T14:03:57.949Z,95295.34
2022-09-28T14:06:33.795Z,95294.50
2022-09-28T14:09:10.600Z,95283.75
2022-09-28T14:11:44.307Z,95293.34
2022-09-28T14:14:33.806Z,95288.28
2022-09-28T14:17:47.996Z,95291.19
2022-09-28T14:20:17.999Z,95295.81
2022-09-28T14:23:10.914Z,95294.56
2022-09-28T14:25:44.155Z,95299.09
2022-09-28T14:28:31.184Z,95302.16
2022-09-28T14:30:59.771Z,95303.50
2022-09-28T14:33:29.928Z,95301.47
2022-09-28T14:35:59.749Z,95299.38
2022-09-28T14:38:49.967Z,95303.13
2022-09-28T14:41:31.426Z,95299.25
2022-09-28T14:44:05.899Z,95306.31
2022-09-28T14:46:36.971Z,95309.03
2022-09-28T14:49:07.455Z,95317.22
2022-09-28T14:51:56.208Z,95315.75
2022-09-28T14:54:26.789Z,95320.31
2022-09-28T14:57:08.235Z,95318.84
2022-09-28T14:59:43.700Z,95316.72
2022-09-28T15:02:18.459Z,95318.81
2022-09-28T15:04:49.901Z,95303.53
2022-09-28T15:07:23.639Z,95312.34
2022-09-28T15:09:54.165Z,95307.91
2022-09-28T15:12:23.527Z,95308.25
2022-09-28T15:14:53.948Z,95310.34
2022-09-28T15:17:24.774Z,95310.25
2022-09-28T15:20:18.671Z,95303.25
2022-09-28T15:22:47.688Z,95310.44
2022-09-28T15:25:20.015Z,95313.88
2022-09-28T15:27:52.718Z,95313.13
2022-09-28T15:30:25.487Z,95319.81
2022-09-28T15:32:57.176Z,95312.34
2022-09-28T15:35:26.668Z,95319.94
2022-09-28T15:37:56.087Z,95321.91
2022-09-28T15:40:32.914Z,95323.09
2022-09-28T15:43:02.628Z,95324.47
2022-09-28T15:45:33.839Z,95322.28
2022-09-28T15:48:20.577Z,95325.28
2022-09-28T15:50:59.519Z,95332.44
2022-09-28T15:53:28.155Z,95324.25
2022-09-28T15:56:10.121Z,95325.53
2022-09-28T15:58:39.087Z,95332.19
2022-09-28T16:01:29.523Z,95335.69
2022-09-28T16:03:57.726Z,95329.72
2022-09-28T16:06:25.859Z,95336.47
2022-09-28T16:08:53.965Z,95333.25
2022-09-28T16:11:26.413Z,95334.34
2022-09-28T16:13:57.587Z,95338.44
2022-09-28T16:16:28.295Z,95337.97
2022-09-28T16:18:56.607Z,95339.09
2022-09-28T16:21:40.847Z,95344.91
2022-09-28T16:24:15.427Z,95338.75
2022-09-28T16:26:44.917Z,95342.28
2022-09-28T16:29:27.647Z,95340.53
2022-09-28T16:31:55.928Z,95353.81
2022-09-28T16:34:26.887Z,95356.53
2022-09-28T16:36:55.167Z,95358.88
2022-09-28T16:39:23.347Z,95363.34
2022-09-28T16:41:55.529Z,95359.97
2022-09-28T16:44:26.385Z,95363.13
2022-09-28T16:46:57.161Z,95364.84
2022-09-28T16:49:27.077Z,95359.47
2022-09-28T16:51:55.314Z,95371.75
2022-09-28T16:54:42.129Z,95364.88
2022-09-28T16:57:13.356Z,95372.88
2022-09-28T16:59:41.704Z,95381.84
2022-09-28T17:02:42.564Z,95369.44
2022-09-28T17:05:09.107Z,95368.09
2022-09-28T17:07:37.387Z,95367.94
2022-09-28T17:10:14.215Z,95365.16
2022-09-28T17:12:43.697Z,95363.38
2022-09-28T17:15:12.164Z,95365.84
2022-09-28T17:17:40.664Z,95373.72
2022-09-28T17:20:20.456Z,95361.78
2022-09-28T17:22:48.635Z,95372.88
2022-09-28T17:25:17.021Z,95381.88
2022-09-28T17:27:48.237Z,95382.09
2022-09-28T17:30:17.118Z,95386.59
2022-09-28T17:32:47.383Z,95381.72
2022-09-28T17:35:25.464Z,95385.16
2022-09-28T17:37:54.917Z,95379.44
2022-09-28T17:40:25.557Z,95386.09
2022-09-28T17:42:56.878Z,95381.38
2022-09-28T17:45:27.124Z,95381.19
2022-09-28T17:47:55.927Z,95381.78
2022-09-28T17:50:25.937Z,95387.44
2022-09-28T17:52:55.157Z,95391.13
2022-09-28T17:55:23.921Z,95389.97
2022-09-28T17:57:52.409Z,95403.41
2022-09-28T18:00:22.358Z,95410.31
2022-09-28T18:02:52.138Z,95403.47
2022-09-28T18:05:21.007Z,95394.59
2022-09-28T18:07:50.409Z,95406.38
2022-09-28T18:10:21.565Z,95411.22
2022-09-28T18:12:51.224Z,95402.72
2022-09-28T18:15:21.514Z,95420.34
2022-09-28T18:17:49.936Z,95414.25
2022-09-28T18:20:18.349Z,95416.66
2022-09-28T18:22:46.647Z,95418.28
2022-09-28T18:25:14.887Z,95414.63
2022-09-28T18:27:43.429Z,95421.47
2022-09-28T18:30:12.266Z,95427.75
2022-09-28T18:32:41.940Z,95427.31
2022-09-28T18:35:11.505Z,95434.81
2022-09-28T18:37:40.515Z,95436.84
2022-09-28T18:40:10.027Z,95433.44
2022-09-28T18:42:38.287Z,95448.19
2022-09-28T18:45:07.964Z,95447.38
2022-09-28T18:47:36.347Z,95444.97
2022-09-28T18:50:07.205Z,95460.72
2022-09-28T18:52:37.617Z,95454.25
2022-09-28T18:55:06.784Z,95454.66
2022-09-28T18:57:35.472Z,95460.53
2022-09-28T19:00:05.427Z,95460.72
2022-09-28T19:02:33.822Z,95470.00
2022-09-28T19:05:02.097Z,95467.59
2022-09-28T19:07:31.867Z,95467.94
2022-09-28T19:10:00.076Z,95472.38
2022-09-28T19:12:28.366Z,95475.22
2022-09-28T19:14:56.597Z,95471.75
2022-09-28T19:17:24.854Z,95482.28
2022-09-28T19:19:53.047Z,95478.00
2022-09-28T19:22:21.259Z,95478.97
2022-09-28T19:24:50.909Z,95490.06
2022-09-28T19:27:19.135Z,95487.06
2022-09-28T19:29:47.379Z,95491.25
2022-09-28T19:32:15.643Z,95488.44
2022-09-28T19:34:43.823Z,95486.44
2022-09-28T19:37:12.088Z,95493.84
2022-09-28T19:39:40.790Z,95496.63
2022-09-28T19:42:10.472Z,95491.34
2022-09-28T19:44:39.347Z,95498.59
2022-09-28T19:47:10.197Z,95485.00
2022-09-28T19:49:39.789Z,95502.63
2022-09-28T19:52:14.664Z,95503.00
2022-09-28T19:54:45.111Z,95512.31
2022-09-28T19:57:16.187Z,95508.31
2022-09-28T20:00:09.918Z,95515.19
2022-09-28T20:02:38.239Z,95522.69
2022-09-28T20:05:07.018Z,95533.66
2022-09-28T20:07:36.349Z,95533.09
2022-09-28T20:10:04.918Z,95540.63
2022-09-28T20:12:34.803Z,95544.50
2022-09-28T20:15:03.022Z,95545.38
2022-09-28T20:17:31.247Z,95548.88
2022-09-28T20:19:59.449Z,95555.38
2022-09-28T20:22:27.668Z,95559.03
2022-09-28T20:24:55.859Z,95557.06
2022-09-28T20:27:26.499Z,95563.53
2022-09-28T20:29:56.247Z,95559.50
2022-09-28T20:32:24.450Z,95554.88
2022-09-28T20:34:52.688Z,95554.28
2022-09-28T20:37:20.907Z,95556.91
2022-09-28T20:39:49.136Z,95551.25
2022-09-28T20:42:17.898Z,95553.66
2022-09-28T20:44:46.178Z,95558.56
2022-09-28T20:47:15.829Z,95557.13
2022-09-28T20:49:44.588Z,95557.16
2022-09-28T20:52:12.844Z,95554.31
2022-09-28T20:54:41.077Z,95554.31
2022-09-28T20:57:17.670Z,95558.53
2022-09-28T20:59:47.875Z,95564.41
2022-09-28T21:02:20.573Z,95567.84
2022-09-28T21:04:48.828Z,95572.91
2022-09-28T21:07:16.999Z,95569.28
2022-09-28T21:09:45.238Z,95562.56
2022-09-28T21:12:15.512Z,95572.28
2022-09-28T21:14:43.727Z,95564.00
2022-09-28T21:17:11.907Z,95566.44
2022-09-28T21:19:41.587Z,95578.59
2022-09-28T21:22:09.727Z,95576.59
2022-09-28T21:24:38.288Z,95585.28
2022-09-28T21:27:06.456Z,95578.59
2022-09-28T21:29:35.047Z,95568.28
2022-09-28T21:32:03.479Z,95582.03
2022-09-28T21:34:31.688Z,95581.22
2022-09-28T21:37:01.366Z,95590.13
2022-09-28T21:39:29.562Z,95586.28
2022-09-28T21:41:57.729Z,95595.19
2022-09-28T21:44:26.419Z,95592.94
2022-09-28T21:46:54.711Z,95592.53
2022-09-28T21:49:23.359Z,95590.88
2022-09-28T21:51:52.718Z,95590.41
2022-09-28T21:54:22.749Z,95585.16
2022-09-28T21:56:50.949Z,95589.81
2022-09-28T21:59:19.257Z,95587.00
2022-09-28T22:01:48.339Z,95587.00
2022-09-28T22:04:16.731Z,95587.78
2022-09-28T22:06:44.899Z,95590.81
2022-09-28T22:09:13.118Z,95592.44
2022-09-28T22:11:42.880Z,95596.25
2022-09-28T22:14:11.850Z,95595.84
2022-09-28T22:16:40.825Z,95593.13
2022-09-28T22:19:09.145Z,95593.78
2022-09-28T22:21:37.287Z,95595.94
2022-09-28T22:24:07.277Z,95600.34
2022-09-28T22:26:37.554Z,95599.69
2022-09-28T22:29:08.821Z,95591.81
2022-09-28T22:31:38.406Z,95596.22
2022-09-28T22:34:07.135Z,95597.75
2022-09-28T22:36:35.388Z,95593.28
2022-09-28T22:39:03.820Z,95598.28
2022-09-28T22:41:32.320Z,95609.53
2022-09-28T22:44:00.859Z,95602.03
2022-09-28T22:46:32.064Z,95602.88
2022-09-28T22:49:00.989Z,95603.81
2022-09-28T22:51:30.613Z,95608.06
2022-09-28T22:53:58.974Z,95604.63
2022-09-28T22:56:27.209Z,95607.50
2022-09-28T22:58:55.427Z,95600.78
2022-09-28T23:01:25.135Z,95596.00
2022-09-28T23:03:55.836Z,95605.47
2022-09-28T23:06:26.106Z,95608.09
2022-09-28T23:08:54.614Z,95608.81
2022-09-28T23:11:22.797Z,95610.59
2022-09-28T23:13:51.779Z,95612.34
2022-09-28T23:16:20.623Z,95617.75
2022-09-28T23:18:49.442Z,95616.59
2022-09-28T23:21:22.616Z,95615.59
2022-09-28T23:23:55.306Z,95613.97
2022-09-28T23:26:25.168Z,95615.34
2022-09-28T23:28:54.090Z,95599.72
2022-09-28T23:31:23.569Z,95606.91
2022-09-28T23:33:51.848Z,95607.59
2022-09-28T23:36:22.132Z,95607.59
2022-09-28T23:38:50.597Z,95610.22
2022-09-28T23:41:19.187Z,95604.97
2022-09-28T23:43:47.428Z,95613.66
2022-09-28T23:46:20.475Z,95605.78
2022-09-28T23:48:49.642Z,95603.78
2022-09-28T23:51:17.924Z,95609.66
2022-09-28T23:53:47.827Z,95608.09
2022-09-28T23:56:16.077Z,95611.75
2022-09-28T23:58:44.387Z,95610.00
